sensor_id;sensor_type;location;lat;lon;timestamp;pressure;altitude;pressure_sealevel;temperature;humidity
63306;BME280;50735;52.060;1.248;2022-09-20T00:00:23;102228.62;;;10.92;45.92
63306;BME280;50735;52.060;1.248;2022-09-20T00:02:50;102229.48;;;11.25;45.59
63306;BME280;50735;52.060;1.248;2022-09-20T00:05:17;102227.05;;;11.03;45.67
63306;BME280;50735;52.060;1.248;2022-09-20T00:07:44;102225.79;;;10.99;45.94
63306;BME280;50735;52.060;1.248;2022-09-20T00:10:11;102223.68;;;10.92;45.71
63306;BME280;50735;52.060;1.248;2022-09-20T00:12:37;102222.73;;;11.10;45.96
63306;BME280;50735;52.060;1.248;2022-09-20T00:15:05;102221.63;;;10.65;45.86
63306;BME280;50735;52.060;1.248;2022-09-20T00:17:32;102219.60;;;10.80;47.00
63306;BME280;50735;52.060;1.248;2022-09-20T00:19:58;102216.44;;;10.92;46.32
63306;BME280;50735;52.060;1.248;2022-09-20T00:22:25;102219.01;;;10.88;46.14
63306;BME280;50735;52.060;1.248;2022-09-20T00:24:51;102221.49;;;10.86;46.47
63306;BME280;50735;52.060;1.248;2022-09-20T00:27:18;102221.02;;;10.85;46.24
63306;BME280;50735;52.060;1.248;2022-09-20T00:29:45;102220.60;;;10.86;46.54
63306;BME280;50735;52.060;1.248;2022-09-20T00:32:12;102222.60;;;10.82;46.54
63306;BME280;50735;52.060;1.248;2022-09-20T00:34:38;102225.90;;;10.75;46.50
63306;BME280;50735;52.060;1.248;2022-09-20T00:37:05;102228.23;;;10.72;46.49
63306;BME280;50735;52.060;1.248;2022-09-20T00:39:32;102227.75;;;10.70;46.65
63306;BME280;50735;52.060;1.248;2022-09-20T00:41:58;102229.15;;;10.67;46.81
63306;BME280;50735;52.060;1.248;2022-09-20T00:44:44;102226.70;;;10.64;47.44
63306;BME280;50735;52.060;1.248;2022-09-20T00:47:15;102228.52;;;10.59;46.61
63306;BME280;50735;52.060;1.248;2022-09-20T00:49:45;102228.74;;;10.57;46.88
63306;BME280;50735;52.060;1.248;2022-09-20T00:52:11;102228.82;;;10.72;46.77
63306;BME280;50735;52.060;1.248;2022-09-20T00:54:38;102230.41;;;10.50;47.17
63306;BME280;50735;52.060;1.248;2022-09-20T00:57:05;102231.54;;;10.46;47.05
63306;BME280;50735;52.060;1.248;2022-09-20T00:59:34;102230.84;;;10.61;47.25
63306;BME280;50735;52.060;1.248;2022-09-20T01:02:07;102230.60;;;10.39;47.15
63306;BME280;50735;52.060;1.248;2022-09-20T01:04:37;102232.96;;;10.35;46.80
63306;BME280;50735;52.060;1.248;2022-09-20T01:07:06;102230.96;;;10.33;47.18
63306;BME280;50735;52.060;1.248;2022-09-20T01:09:35;102232.73;;;10.50;47.23
63306;BME280;50735;52.060;1.248;2022-09-20T01:12:05;102230.29;;;10.32;47.09
63306;BME280;50735;52.060;1.248;2022-09-20T01:14:33;102234.19;;;10.31;47.19
63306;BME280;50735;52.060;1.248;2022-09-20T01:17:03;102236.43;;;10.31;47.38
63306;BME280;50735;52.060;1.248;2022-09-20T01:19:37;102235.35;;;10.26;47.87
63306;BME280;50735;52.060;1.248;2022-09-20T01:22:10;102235.97;;;10.38;47.60
63306;BME280;50735;52.060;1.248;2022-09-20T01:24:44;102231.81;;;10.18;47.32
63306;BME280;50735;52.060;1.248;2022-09-20T01:27:19;102232.63;;;10.21;47.33
63306;BME280;50735;52.060;1.248;2022-09-20T01:29:58;102235.29;;;10.37;47.75
63306;BME280;50735;52.060;1.248;2022-09-20T01:32:35;102239.06;;;10.53;47.98
63306;BME280;50735;52.060;1.248;2022-09-20T01:35:08;102242.29;;;10.29;47.38
63306;BME280;50735;52.060;1.248;2022-09-20T01:37:42;102243.46;;;10.41;47.39
63306;BME280;50735;52.060;1.248;2022-09-20T01:40:18;102242.91;;;10.03;47.45
63306;BME280;50735;52.060;1.248;2022-09-20T01:42:53;102242.61;;;10.19;48.51
63306;BME280;50735;52.060;1.248;2022-09-20T01:45:27;102246.41;;;10.31;48.21
63306;BME280;50735;52.060;1.248;2022-09-20T01:48:03;102247.86;;;10.27;48.21
63306;BME280;50735;52.060;1.248;2022-09-20T01:50:45;102245.12;;;9.86;47.79
63306;BME280;50735;52.060;1.248;2022-09-20T01:54:44;102244.92;;;10.57;48.23
63306;BME280;50735;52.060;1.248;2022-09-20T01:57:41;102242.93;;;10.12;48.16
63306;BME280;50735;52.060;1.248;2022-09-20T02:00:14;102247.07;;;10.08;47.99
63306;BME280;50735;52.060;1.248;2022-09-20T02:04:32;102245.04;;;10.42;48.17
63306;BME280;50735;52.060;1.248;2022-09-20T02:07:25;102242.77;;;10.00;48.76
63306;BME280;50735;52.060;1.248;2022-09-20T02:10:10;102237.80;;;9.97;48.76
63306;BME280;50735;52.060;1.248;2022-09-20T02:12:51;102237.99;;;9.94;48.44
63306;BME280;50735;52.060;1.248;2022-09-20T02:15:46;102238.18;;;9.93;48.49
63306;BME280;50735;52.060;1.248;2022-09-20T02:18:32;102241.97;;;9.89;49.16
63306;BME280;50735;52.060;1.248;2022-09-20T02:21:11;102239.81;;;9.86;48.70
63306;BME280;50735;52.060;1.248;2022-09-20T02:23:50;102241.61;;;9.84;49.87
63306;BME280;50735;52.060;1.248;2022-09-20T02:26:34;102239.79;;;9.79;49.17
63306;BME280;50735;52.060;1.248;2022-09-20T02:29:11;102235.23;;;9.63;49.27
63306;BME280;50735;52.060;1.248;2022-09-20T02:32:07;102235.40;;;9.82;49.56
63306;BME280;50735;52.060;1.248;2022-09-20T02:35:00;102235.12;;;9.79;49.08
63306;BME280;50735;52.060;1.248;2022-09-20T02:37:50;102238.25;;;9.78;49.21
63306;BME280;50735;52.060;1.248;2022-09-20T02:40:34;102237.72;;;9.78;49.26
63306;BME280;50735;52.060;1.248;2022-09-20T02:43:11;102241.29;;;9.78;49.25
63306;BME280;50735;52.060;1.248;2022-09-20T02:45:44;102240.14;;;9.99;49.63
63306;BME280;50735;52.060;1.248;2022-09-20T02:48:17;102237.53;;;9.75;49.29
63306;BME280;50735;52.060;1.248;2022-09-20T02:50:50;102236.53;;;9.97;49.39
63306;BME280;50735;52.060;1.248;2022-09-20T02:53:30;102237.81;;;9.73;49.42
63306;BME280;50735;52.060;1.248;2022-09-20T02:56:06;102237.65;;;9.95;49.42
63306;BME280;50735;52.060;1.248;2022-09-20T02:58:45;102237.08;;;9.69;49.30
63306;BME280;50735;52.060;1.248;2022-09-20T03:01:24;102235.11;;;10.09;49.47
63306;BME280;50735;52.060;1.248;2022-09-20T03:04:06;102236.76;;;9.70;49.64
63306;BME280;50735;52.060;1.248;2022-09-20T03:06:42;102235.88;;;9.93;49.65
63306;BME280;50735;52.060;1.248;2022-09-20T03:09:17;102236.37;;;9.69;50.11
63306;BME280;50735;52.060;1.248;2022-09-20T03:11:59;102234.67;;;9.87;50.12
63306;BME280;50735;52.060;1.248;2022-09-20T03:14:32;102233.75;;;9.65;49.85
63306;BME280;50735;52.060;1.248;2022-09-20T03:17:05;102231.88;;;9.90;50.05
63306;BME280;50735;52.060;1.248;2022-09-20T03:19:48;102229.79;;;9.94;50.35
63306;BME280;50735;52.060;1.248;2022-09-20T03:22:29;102227.92;;;9.74;50.55
63306;BME280;50735;52.060;1.248;2022-09-20T03:25:23;102226.97;;;9.82;51.09
63306;BME280;50735;52.060;1.248;2022-09-20T03:28:02;102227.71;;;9.68;51.30
63306;BME280;50735;52.060;1.248;2022-09-20T03:30:47;102224.49;;;10.11;50.98
63306;BME280;50735;52.060;1.248;2022-09-20T03:33:28;102224.51;;;9.94;51.15
63306;BME280;50735;52.060;1.248;2022-09-20T03:36:07;102224.52;;;9.95;50.86
63306;BME280;50735;52.060;1.248;2022-09-20T03:38:49;102224.11;;;9.96;50.72
63306;BME280;50735;52.060;1.248;2022-09-20T03:41:27;102226.33;;;9.96;50.79
63306;BME280;50735;52.060;1.248;2022-09-20T03:44:12;102227.15;;;9.94;50.96
63306;BME280;50735;52.060;1.248;2022-09-20T03:46:43;102228.07;;;10.12;50.98
63306;BME280;50735;52.060;1.248;2022-09-20T03:49:31;102229.93;;;9.89;50.95
63306;BME280;50735;52.060;1.248;2022-09-20T03:52:06;102231.52;;;9.89;50.85
63306;BME280;50735;52.060;1.248;2022-09-20T03:54:53;102232.81;;;9.88;50.89
63306;BME280;50735;52.060;1.248;2022-09-20T03:57:49;102231.33;;;9.90;50.87
63306;BME280;50735;52.060;1.248;2022-09-20T04:00:22;102232.48;;;9.90;50.79
63306;BME280;50735;52.060;1.248;2022-09-20T04:03:09;102230.09;;;9.86;50.83
63306;BME280;50735;52.060;1.248;2022-09-20T04:05:49;102228.04;;;10.04;50.95
63306;BME280;50735;52.060;1.248;2022-09-20T04:08:32;102227.68;;;9.79;50.78
63306;BME280;50735;52.060;1.248;2022-09-20T04:11:08;102225.28;;;9.77;50.85
63306;BME280;50735;52.060;1.248;2022-09-20T04:13:39;102223.74;;;9.94;50.89
63306;BME280;50735;52.060;1.248;2022-09-20T04:16:21;102221.14;;;9.72;50.89
63306;BME280;50735;52.060;1.248;2022-09-20T04:18:52;102219.36;;;9.73;50.95
63306;BME280;50735;52.060;1.248;2022-09-20T04:21:27;102217.88;;;9.93;50.78
63306;BME280;50735;52.060;1.248;2022-09-20T04:24:02;102219.01;;;9.90;50.74
63306;BME280;50735;52.060;1.248;2022-09-20T04:26:34;102218.37;;;9.64;50.76
63306;BME280;50735;52.060;1.248;2022-09-20T04:29:24;102222.79;;;9.63;50.90
63306;BME280;50735;52.060;1.248;2022-09-20T04:31:58;102217.21;;;10.04;51.01
63306;BME280;50735;52.060;1.248;2022-09-20T04:34:34;102220.13;;;9.84;51.18
63306;BME280;50735;52.060;1.248;2022-09-20T04:37:21;102221.66;;;9.81;51.40
63306;BME280;50735;52.060;1.248;2022-09-20T04:39:58;102218.37;;;9.48;51.80
63306;BME280;50735;52.060;1.248;2022-09-20T04:42:44;102219.73;;;9.48;51.97
63306;BME280;50735;52.060;1.248;2022-09-20T04:45:43;102220.10;;;9.92;51.73
63306;BME280;50735;52.060;1.248;2022-09-20T04:49:02;102218.04;;;9.53;51.75
63306;BME280;50735;52.060;1.248;2022-09-20T04:52:10;102219.03;;;9.77;51.81
63306;BME280;50735;52.060;1.248;2022-09-20T04:55:48;102220.41;;;9.52;51.49
63306;BME280;50735;52.060;1.248;2022-09-20T04:58:54;102225.48;;;9.49;51.46
63306;BME280;50735;52.060;1.248;2022-09-20T05:04:45;102229.26;;;9.81;51.29
63306;BME280;50735;52.060;1.248;2022-09-20T05:09:55;102236.79;;;9.76;51.58
63306;BME280;50735;52.060;1.248;2022-09-20T05:12:37;102239.98;;;9.30;51.63
63306;BME280;50735;52.060;1.248;2022-09-20T05:15:19;102241.29;;;9.48;51.60
63306;BME280;50735;52.060;1.248;2022-09-20T05:18:03;102244.45;;;9.66;51.48
63306;BME280;50735;52.060;1.248;2022-09-20T05:20:45;102249.19;;;9.66;51.56
63306;BME280;50735;52.060;1.248;2022-09-20T05:23:37;102248.77;;;9.45;51.49
63306;BME280;50735;52.060;1.248;2022-09-20T05:26:11;102252.26;;;9.60;51.80
63306;BME280;50735;52.060;1.248;2022-09-20T05:28:48;102253.30;;;9.61;51.91
63306;BME280;50735;52.060;1.248;2022-09-20T05:31:25;102255.70;;;9.63;51.81
63306;BME280;50735;52.060;1.248;2022-09-20T05:34:01;102252.16;;;9.61;51.64
63306;BME280;50735;52.060;1.248;2022-09-20T05:36:40;102250.74;;;9.57;51.72
63306;BME280;50735;52.060;1.248;2022-09-20T05:39:25;102254.42;;;9.33;51.94
63306;BME280;50735;52.060;1.248;2022-09-20T05:41:56;102252.67;;;9.28;51.84
63306;BME280;50735;52.060;1.248;2022-09-20T05:44:30;102254.07;;;9.02;51.41
63306;BME280;50735;52.060;1.248;2022-09-20T05:47:13;102256.47;;;9.18;51.45
63306;BME280;50735;52.060;1.248;2022-09-20T05:49:50;102258.53;;;9.30;51.38
63306;BME280;50735;52.060;1.248;2022-09-20T05:52:31;102255.22;;;9.27;51.64
63306;BME280;50735;52.060;1.248;2022-09-20T05:55:15;102255.34;;;9.06;51.52
63306;BME280;50735;52.060;1.248;2022-09-20T05:58:02;102253.62;;;9.04;51.40
63306;BME280;50735;52.060;1.248;2022-09-20T06:00:38;102252.99;;;9.02;52.37
63306;BME280;50735;52.060;1.248;2022-09-20T06:03:13;102254.03;;;9.21;51.63
63306;BME280;50735;52.060;1.248;2022-09-20T06:05:52;102250.71;;;9.20;51.61
63306;BME280;50735;52.060;1.248;2022-09-20T06:08:36;102251.58;;;9.16;51.60
63306;BME280;50735;52.060;1.248;2022-09-20T06:11:18;102250.44;;;8.87;52.08
63306;BME280;50735;52.060;1.248;2022-09-20T06:13:59;102252.62;;;8.64;52.05
63306;BME280;50735;52.060;1.248;2022-09-20T06:16:36;102258.91;;;8.92;51.97
63306;BME280;50735;52.060;1.248;2022-09-20T06:19:14;102259.08;;;9.15;51.97
63306;BME280;50735;52.060;1.248;2022-09-20T06:21:50;102260.63;;;9.02;51.93
63306;BME280;50735;52.060;1.248;2022-09-20T06:24:28;102260.97;;;9.27;52.14
63306;BME280;50735;52.060;1.248;2022-09-20T06:26:59;102265.43;;;9.33;52.28
63306;BME280;50735;52.060;1.248;2022-09-20T06:29:29;102265.94;;;9.37;52.67
63306;BME280;50735;52.060;1.248;2022-09-20T06:31:58;102263.01;;;9.45;52.80
63306;BME280;50735;52.060;1.248;2022-09-20T06:34:27;102266.25;;;9.36;52.63
63306;BME280;50735;52.060;1.248;2022-09-20T06:39:45;102266.53;;;9.70;52.79
63306;BME280;50735;52.060;1.248;2022-09-20T06:42:14;102267.57;;;9.36;52.91
63306;BME280;50735;52.060;1.248;2022-09-20T06:44:41;102266.94;;;9.85;53.71
63306;BME280;50735;52.060;1.248;2022-09-20T06:47:08;102264.71;;;9.50;52.84
63306;BME280;50735;52.060;1.248;2022-09-20T06:49:36;102267.94;;;9.80;52.94
63306;BME280;50735;52.060;1.248;2022-09-20T06:52:04;102276.38;;;9.65;53.02
63306;BME280;50735;52.060;1.248;2022-09-20T06:54:31;102278.11;;;9.98;53.55
63306;BME280;50735;52.060;1.248;2022-09-20T06:56:59;102280.01;;;10.05;53.30
63306;BME280;50735;52.060;1.248;2022-09-20T06:59:28;102282.31;;;9.92;53.18
63306;BME280;50735;52.060;1.248;2022-09-20T07:01:55;102284.19;;;9.95;53.47
63306;BME280;50735;52.060;1.248;2022-09-20T07:04:23;102286.68;;;10.05;53.51
63306;BME280;50735;52.060;1.248;2022-09-20T07:06:50;102287.86;;;10.38;53.42
63306;BME280;50735;52.060;1.248;2022-09-20T07:09:17;102288.03;;;10.24;53.53
63306;BME280;50735;52.060;1.248;2022-09-20T07:11:43;102289.17;;;10.37;54.09
63306;BME280;50735;52.060;1.248;2022-09-20T07:14:11;102290.68;;;10.41;53.59
63306;BME280;50735;52.060;1.248;2022-09-20T07:16:37;102293.21;;;10.55;53.62
63306;BME280;50735;52.060;1.248;2022-09-20T07:19:05;102292.17;;;10.72;53.68
63306;BME280;50735;52.060;1.248;2022-09-20T07:21:31;102290.86;;;10.75;53.79
63306;BME280;50735;52.060;1.248;2022-09-20T07:23:58;102295.93;;;10.59;53.97
63306;BME280;50735;52.060;1.248;2022-09-20T07:26:27;102303.55;;;10.66;53.95
63306;BME280;50735;52.060;1.248;2022-09-20T07:28:56;102299.93;;;10.63;53.78
63306;BME280;50735;52.060;1.248;2022-09-20T07:31:24;102301.52;;;11.01;54.05
63306;BME280;50735;52.060;1.248;2022-09-20T07:33:52;102303.29;;;11.00;54.44
63306;BME280;50735;52.060;1.248;2022-09-20T07:36:20;102301.07;;;11.13;53.69
63306;BME280;50735;52.060;1.248;2022-09-20T07:38:47;102305.62;;;11.05;53.63
63306;BME280;50735;52.060;1.248;2022-09-20T07:41:14;102307.88;;;11.20;53.39
63306;BME280;50735;52.060;1.248;2022-09-20T07:43:40;102310.49;;;11.35;53.13
63306;BME280;50735;52.060;1.248;2022-09-20T07:46:09;102309.88;;;11.48;53.71
63306;BME280;50735;52.060;1.248;2022-09-20T07:48:35;102310.39;;;11.57;53.29
63306;BME280;50735;52.060;1.248;2022-09-20T07:51:04;102307.21;;;11.69;53.05
63306;BME280;50735;52.060;1.248;2022-09-20T07:53:31;102307.49;;;11.50;52.80
63306;BME280;50735;52.060;1.248;2022-09-20T07:56:00;102310.48;;;11.74;52.45
63306;BME280;50735;52.060;1.248;2022-09-20T07:58:28;102310.43;;;11.72;52.40
63306;BME280;50735;52.060;1.248;2022-09-20T08:00:57;102310.53;;;11.99;51.72
63306;BME280;50735;52.060;1.248;2022-09-20T08:03:24;102309.17;;;12.14;51.30
63306;BME280;50735;52.060;1.248;2022-09-20T08:05:58;102306.16;;;12.28;51.23
63306;BME280;50735;52.060;1.248;2022-09-20T08:08:25;102311.14;;;12.50;51.03
63306;BME280;50735;52.060;1.248;2022-09-20T08:10:52;102315.02;;;12.66;50.54
63306;BME280;50735;52.060;1.248;2022-09-20T08:13:19;102319.12;;;12.97;49.92
63306;BME280;50735;52.060;1.248;2022-09-20T08:15:45;102314.58;;;12.82;49.46
63306;BME280;50735;52.060;1.248;2022-09-20T08:18:12;102310.86;;;13.17;48.88
63306;BME280;50735;52.060;1.248;2022-09-20T08:20:39;102309.01;;;12.94;49.31
63306;BME280;50735;52.060;1.248;2022-09-20T08:23:06;102310.54;;;13.30;48.97
63306;BME280;50735;52.060;1.248;2022-09-20T08:25:33;102317.60;;;13.15;48.58
63306;BME280;50735;52.060;1.248;2022-09-20T08:27:59;102318.20;;;13.24;48.17
63306;BME280;50735;52.060;1.248;2022-09-20T08:30:27;102323.62;;;13.39;47.82
63306;BME280;50735;52.060;1.248;2022-09-20T08:32:53;102324.48;;;13.29;47.37
63306;BME280;50735;52.060;1.248;2022-09-20T08:35:20;102328.08;;;13.27;47.54
63306;BME280;50735;52.060;1.248;2022-09-20T08:37:47;102336.43;;;13.30;47.70
63306;BME280;50735;52.060;1.248;2022-09-20T08:40:14;102333.37;;;13.41;47.01
63306;BME280;50735;52.060;1.248;2022-09-20T08:42:42;102327.46;;;13.46;46.62
63306;BME280;50735;52.060;1.248;2022-09-20T08:45:14;102330.77;;;13.57;46.45
63306;BME280;50735;52.060;1.248;2022-09-20T08:47:46;102330.13;;;13.62;45.59
63306;BME280;50735;52.060;1.248;2022-09-20T08:50:14;102326.99;;;14.04;45.90
63306;BME280;50735;52.060;1.248;2022-09-20T08:52:44;102326.13;;;14.42;44.99
63306;BME280;50735;52.060;1.248;2022-09-20T08:55:14;102331.30;;;14.47;44.46
63306;BME280;50735;52.060;1.248;2022-09-20T08:57:42;102331.14;;;14.73;44.77
63306;BME280;50735;52.060;1.248;2022-09-20T09:00:16;102334.36;;;15.12;44.49
63306;BME280;50735;52.060;1.248;2022-09-20T09:02:43;102335.58;;;15.06;44.31
63306;BME280;50735;52.060;1.248;2022-09-20T09:05:26;102338.06;;;14.97;43.47
63306;BME280;50735;52.060;1.248;2022-09-20T09:07:55;102340.03;;;15.05;42.46
63306;BME280;50735;52.060;1.248;2022-09-20T09:10:21;102339.58;;;15.01;42.31
63306;BME280;50735;52.060;1.248;2022-09-20T09:12:48;102340.43;;;14.62;41.82
63306;BME280;50735;52.060;1.248;2022-09-20T09:15:23;102340.34;;;14.87;42.68
63306;BME280;50735;52.060;1.248;2022-09-20T09:17:53;102340.25;;;15.30;42.56
63306;BME280;50735;52.060;1.248;2022-09-20T09:20:22;102337.90;;;15.38;42.22
63306;BME280;50735;52.060;1.248;2022-09-20T09:22:58;102336.97;;;15.05;41.20
63306;BME280;50735;52.060;1.248;2022-09-20T09:25:25;102337.88;;;15.56;41.26
63306;BME280;50735;52.060;1.248;2022-09-20T09:27:55;102340.34;;;15.18;40.12
63306;BME280;50735;52.060;1.248;2022-09-20T09:30:25;102340.04;;;15.53;40.78
63306;BME280;50735;52.060;1.248;2022-09-20T09:32:53;102336.95;;;15.33;40.33
63306;BME280;50735;52.060;1.248;2022-09-20T09:35:39;102336.62;;;15.41;39.57
63306;BME280;50735;52.060;1.248;2022-09-20T09:38:16;102337.04;;;15.54;38.18
63306;BME280;50735;52.060;1.248;2022-09-20T09:40:49;102337.76;;;15.53;38.30
63306;BME280;50735;52.060;1.248;2022-09-20T09:43:20;102336.96;;;15.55;37.40
63306;BME280;50735;52.060;1.248;2022-09-20T09:45:46;102338.15;;;15.69;37.98
63306;BME280;50735;52.060;1.248;2022-09-20T09:48:19;102340.97;;;15.38;38.60
63306;BME280;50735;52.060;1.248;2022-09-20T09:50:45;102340.08;;;15.39;38.61
63306;BME280;50735;52.060;1.248;2022-09-20T09:53:14;102343.94;;;15.71;38.46
63306;BME280;50735;52.060;1.248;2022-09-20T09:55:57;102345.20;;;15.57;38.79
63306;BME280;50735;52.060;1.248;2022-09-20T09:58:37;102343.93;;;16.12;38.39
63306;BME280;50735;52.060;1.248;2022-09-20T10:01:12;102345.11;;;16.67;37.70
63306;BME280;50735;52.060;1.248;2022-09-20T10:03:52;102340.58;;;16.95;36.24
63306;BME280;50735;52.060;1.248;2022-09-20T10:06:27;102337.64;;;17.25;35.90
63306;BME280;50735;52.060;1.248;2022-09-20T10:09:04;102332.88;;;17.23;35.86
63306;BME280;50735;52.060;1.248;2022-09-20T10:11:41;102337.67;;;17.46;36.25
63306;BME280;50735;52.060;1.248;2022-09-20T10:14:21;102330.32;;;17.50;34.18
63306;BME280;50735;52.060;1.248;2022-09-20T10:17:04;102334.65;;;17.82;34.16
63306;BME280;50735;52.060;1.248;2022-09-20T10:19:45;102333.99;;;17.91;34.05
63306;BME280;50735;52.060;1.248;2022-09-20T10:22:21;102332.79;;;18.05;33.89
63306;BME280;50735;52.060;1.248;2022-09-20T10:24:59;102330.46;;;18.35;33.49
63306;BME280;50735;52.060;1.248;2022-09-20T10:27:38;102331.60;;;18.23;32.49
63306;BME280;50735;52.060;1.248;2022-09-20T10:30:13;102323.27;;;18.34;32.94
63306;BME280;50735;52.060;1.248;2022-09-20T10:32:51;102322.45;;;18.55;32.54
63306;BME280;50735;52.060;1.248;2022-09-20T10:35:25;102322.89;;;18.48;32.36
63306;BME280;50735;52.060;1.248;2022-09-20T10:38:04;102320.55;;;18.78;31.94
63306;BME280;50735;52.060;1.248;2022-09-20T10:40:47;102320.75;;;18.88;30.99
63306;BME280;50735;52.060;1.248;2022-09-20T10:43:28;102318.87;;;18.43;31.11
63306;BME280;50735;52.060;1.248;2022-09-20T10:46:09;102318.62;;;18.57;31.93
63306;BME280;50735;52.060;1.248;2022-09-20T10:48:41;102316.10;;;18.63;31.12
63306;BME280;50735;52.060;1.248;2022-09-20T10:51:13;102315.74;;;19.02;31.56
63306;BME280;50735;52.060;1.248;2022-09-20T10:53:46;102319.52;;;18.65;31.55
63306;BME280;50735;52.060;1.248;2022-09-20T10:56:25;102320.81;;;18.90;31.78
63306;BME280;50735;52.060;1.248;2022-09-20T10:59:16;102318.59;;;18.42;32.14
63306;BME280;50735;52.060;1.248;2022-09-20T11:01:55;102320.90;;;18.63;32.29
63306;BME280;50735;52.060;1.248;2022-09-20T11:04:50;102316.23;;;18.65;32.03
63306;BME280;50735;52.060;1.248;2022-09-20T11:07:25;102315.87;;;18.94;32.22
63306;BME280;50735;52.060;1.248;2022-09-20T11:09:57;102315.24;;;19.08;31.88
63306;BME280;50735;52.060;1.248;2022-09-20T11:12:28;102314.86;;;18.27;32.71
63306;BME280;50735;52.060;1.248;2022-09-20T11:15:04;102311.00;;;18.20;33.21
63306;BME280;50735;52.060;1.248;2022-09-20T11:17:42;102310.11;;;18.60;33.01
63306;BME280;50735;52.060;1.248;2022-09-20T11:20:17;102310.83;;;18.49;32.75
63306;BME280;50735;52.060;1.248;2022-09-20T11:22:47;102310.76;;;18.35;32.62
63306;BME280;50735;52.060;1.248;2022-09-20T11:25:19;102308.59;;;17.88;32.63
63306;BME280;50735;52.060;1.248;2022-09-20T11:27:50;102316.90;;;17.82;32.81
63306;BME280;50735;52.060;1.248;2022-09-20T11:30:20;102311.42;;;18.24;33.48
63306;BME280;50735;52.060;1.248;2022-09-20T11:32:51;102308.21;;;18.59;33.32
63306;BME280;50735;52.060;1.248;2022-09-20T11:35:26;102305.13;;;18.55;33.04
63306;BME280;50735;52.060;1.248;2022-09-20T11:38:00;102308.81;;;18.77;33.39
63306;BME280;50735;52.060;1.248;2022-09-20T11:40:31;102311.94;;;18.56;33.50
63306;BME280;50735;52.060;1.248;2022-09-20T11:43:02;102308.99;;;18.70;32.79
63306;BME280;50735;52.060;1.248;2022-09-20T11:45:31;102306.63;;;18.87;33.04
63306;BME280;50735;52.060;1.248;2022-09-20T11:48:02;102307.48;;;18.83;33.05
63306;BME280;50735;52.060;1.248;2022-09-20T11:50:48;102306.29;;;18.92;32.63
63306;BME280;50735;52.060;1.248;2022-09-20T11:53:31;102305.56;;;19.06;32.46
63306;BME280;50735;52.060;1.248;2022-09-20T11:56:06;102305.10;;;19.14;32.79
63306;BME280;50735;52.060;1.248;2022-09-20T11:58:48;102304.65;;;19.28;32.46
63306;BME280;50735;52.060;1.248;2022-09-20T12:01:24;102305.74;;;19.67;32.36
63306;BME280;50735;52.060;1.248;2022-09-20T12:03:54;102305.49;;;19.61;31.98
63306;BME280;50735;52.060;1.248;2022-09-20T12:06:27;102304.75;;;19.83;32.06
63306;BME280;50735;52.060;1.248;2022-09-20T12:08:56;102306.95;;;18.99;32.61
63306;BME280;50735;52.060;1.248;2022-09-20T12:11:28;102305.69;;;19.41;32.19
63306;BME280;50735;52.060;1.248;2022-09-20T12:14:01;102304.09;;;19.38;32.24
63306;BME280;50735;52.060;1.248;2022-09-20T12:16:39;102302.74;;;19.75;31.10
63306;BME280;50735;52.060;1.248;2022-09-20T12:19:10;102304.72;;;19.57;31.86
63306;BME280;50735;52.060;1.248;2022-09-20T12:22:42;102302.71;;;19.53;31.63
63306;BME280;50735;52.060;1.248;2022-09-20T12:25:58;102303.95;;;19.29;31.60
63306;BME280;50735;52.060;1.248;2022-09-20T12:28:32;102304.86;;;19.42;31.76
63306;BME280;50735;52.060;1.248;2022-09-20T12:31:37;102301.71;;;19.67;31.60
63306;BME280;50735;52.060;1.248;2022-09-20T12:34:30;102297.38;;;19.83;31.45
63306;BME280;50735;52.060;1.248;2022-09-20T12:37:30;102293.59;;;20.10;31.37
63306;BME280;50735;52.060;1.248;2022-09-20T12:39:57;102294.54;;;19.62;31.49
63306;BME280;50735;52.060;1.248;2022-09-20T12:42:28;102295.33;;;18.91;31.56
63306;BME280;50735;52.060;1.248;2022-09-20T12:44:59;102294.04;;;18.89;32.18
63306;BME280;50735;52.060;1.248;2022-09-20T12:47:28;102296.94;;;19.17;32.11
63306;BME280;50735;52.060;1.248;2022-09-20T12:49:56;102295.01;;;19.20;32.14
63306;BME280;50735;52.060;1.248;2022-09-20T12:52:30;102297.20;;;19.21;32.22
63306;BME280;50735;52.060;1.248;2022-09-20T12:54:58;102297.79;;;18.37;32.72
63306;BME280;50735;52.060;1.248;2022-09-20T12:57:28;102295.25;;;19.18;32.93
63306;BME280;50735;52.060;1.248;2022-09-20T12:59:58;102293.91;;;19.12;32.41
63306;BME280;50735;52.060;1.248;2022-09-20T13:02:56;102293.81;;;19.11;32.33
63306;BME280;50735;52.060;1.248;2022-09-20T13:05:40;102293.11;;;19.33;32.51
63306;BME280;50735;52.060;1.248;2022-09-20T13:08:14;102292.49;;;18.99;33.04
63306;BME280;50735;52.060;1.248;2022-09-20T13:10:46;102294.42;;;18.70;33.79
63306;BME280;50735;52.060;1.248;2022-09-20T13:13:22;102296.42;;;18.87;33.26
63306;BME280;50735;52.060;1.248;2022-09-20T13:15:51;102294.33;;;18.63;33.16
63306;BME280;50735;52.060;1.248;2022-09-20T13:18:20;102292.03;;;18.51;33.51
63306;BME280;50735;52.060;1.248;2022-09-20T13:20:49;102291.06;;;18.55;33.51
63306;BME280;50735;52.060;1.248;2022-09-20T13:23:20;102291.75;;;18.45;33.19
63306;BME280;50735;52.060;1.248;2022-09-20T13:25:49;102287.79;;;18.62;33.32
63306;BME280;50735;52.060;1.248;2022-09-20T13:28:25;102288.39;;;18.68;33.57
63306;BME280;50735;52.060;1.248;2022-09-20T13:31:20;102288.96;;;18.72;33.64
63306;BME280;50735;52.060;1.248;2022-09-20T13:33:48;102285.31;;;18.55;33.99
63306;BME280;50735;52.060;1.248;2022-09-20T13:36:20;102287.09;;;18.53;33.92
63306;BME280;50735;52.060;1.248;2022-09-20T13:38:49;102288.46;;;18.49;34.10
63306;BME280;50735;52.060;1.248;2022-09-20T13:41:16;102288.36;;;18.56;34.11
63306;BME280;50735;52.060;1.248;2022-09-20T13:43:43;102288.66;;;18.13;34.27
63306;BME280;50735;52.060;1.248;2022-09-20T13:46:12;102289.54;;;18.12;34.84